Time;durP1;ratioP1;P1;durP2;ratioP2;P2;SDS_P1;SDS_P2;PMS_P1;PMS_P2;Temp;Humidity;BMP_temperature;BMP_pressure;BME280_temperature;BME280_humidity;BME280_pressure;Samples;Min_cycle;Max_cycle;Signal;HPM_P1;HPM_P2
2020/12/31 00:02:13;;;;;;;1.95;1.20;;;22.40;30.70;;;;;;5052962;28;20029;-48
2020/12/31 00:04:40;;;;;;;3.88;1.27;;;22.40;30.70;;;;;;5055232;28;20036;-48
2020/12/31 00:07:06;;;;;;;1.45;0.98;;;22.40;30.70;;;;;;5052853;28;20025;-49
2020/12/31 00:09:35;;;;;;;2.20;1.27;;;22.40;30.70;;;;;;5053825;28;20364;-46
2020/12/31 00:12:01;;;;;;;1.38;1.15;;;22.30;30.70;;;;;;5055635;28;20028;-46
2020/12/31 00:14:27;;;;;;;1.98;1.20;;;22.30;30.70;;;;;;5055626;28;21771;-49
2020/12/31 00:16:52;;;;;;;2.20;1.08;;;22.30;30.70;;;;;;5055430;28;20060;-50
2020/12/31 00:19:18;;;;;;;1.83;1.00;;;22.30;30.70;;;;;;5054718;28;20372;-47
2020/12/31 00:21:44;;;;;;;2.63;1.30;;;22.30;30.70;;;;;;5056144;28;20519;-50
2020/12/31 00:24:09;;;;;;;2.00;1.20;;;22.30;30.70;;;;;;5052820;28;20115;-47
2020/12/31 00:26:35;;;;;;;1.83;1.10;;;22.30;30.70;;;;;;5053781;28;20072;-47
2020/12/31 00:29:01;;;;;;;1.67;0.93;;;22.20;30.60;;;;;;5052704;28;20029;-50
2020/12/31 00:31:27;;;;;;;1.75;1.00;;;22.30;30.70;;;;;;5052524;28;20022;-48
2020/12/31 00:33:52;;;;;;;1.83;1.05;;;22.30;30.70;;;;;;5049408;28;20053;-48
2020/12/31 00:36:18;;;;;;;1.85;1.20;;;22.20;30.70;;;;;;5054800;28;20021;-49
2020/12/31 00:38:44;;;;;;;2.03;0.98;;;22.20;30.70;;;;;;5053920;28;20040;-47
2020/12/31 00:41:10;;;;;;;2.08;1.10;;;22.20;30.70;;;;;;5055532;28;20045;-50
2020/12/31 00:43:36;;;;;;;1.85;1.00;;;22.20;30.70;;;;;;5055329;28;20379;-46
2020/12/31 00:46:02;;;;;;;1.90;1.10;;;22.20;30.70;;;;;;5054216;28;20032;-47
2020/12/31 00:48:28;;;;;;;1.67;1.17;;;22.20;30.70;;;;;;5052048;28;20098;-50
2020/12/31 00:50:53;;;;;;;2.33;1.20;;;22.20;30.80;;;;;;5054876;28;20025;-49
2020/12/31 00:53:21;;;;;;;1.67;1.00;;;22.20;30.80;;;;;;5034792;28;20108;-48
2020/12/31 00:55:47;;;;;;;2.08;0.90;;;22.10;30.70;;;;;;5037458;28;20121;-49
2020/12/31 00:58:14;;;;;;;3.08;1.05;;;22.10;30.80;;;;;;5037487;28;20127;-49
2020/12/31 01:00:40;;;;;;;1.60;1.00;;;22.10;30.80;;;;;;5033976;28;20425;-49
2020/12/31 01:03:08;;;;;;;1.30;0.95;;;22.10;30.90;;;;;;5054996;28;20045;-48
2020/12/31 01:05:34;;;;;;;1.27;0.90;;;22.10;30.80;;;;;;5055408;28;20444;-51
2020/12/31 01:08:00;;;;;;;2.00;0.80;;;22.10;30.80;;;;;;5053442;28;20329;-52
2020/12/31 01:10:25;;;;;;;1.35;0.90;;;22.10;30.80;;;;;;5057170;28;20448;-46
2020/12/31 01:12:51;;;;;;;1.65;0.80;;;22.10;30.80;;;;;;5043021;28;20040;-47
2020/12/31 01:15:17;;;;;;;1.40;0.90;;;22.10;30.80;;;;;;5053005;28;20024;-49
2020/12/31 01:17:43;;;;;;;1.73;1.00;;;22.10;30.90;;;;;;5055429;28;20356;-51
2020/12/31 01:20:09;;;;;;;1.30;0.80;;;22.10;30.90;;;;;;5056910;28;20037;-46
2020/12/31 01:22:35;;;;;;;1.00;0.80;;;22.00;30.80;;;;;;5047477;28;20453;-47
2020/12/31 01:25:01;;;;;;;1.10;0.80;;;22.10;30.90;;;;;;5040156;28;20025;-48
2020/12/31 01:27:27;;;;;;;0.80;0.65;;;22.00;30.80;;;;;;5056516;28;20063;-49
2020/12/31 01:29:52;;;;;;;1.42;0.77;;;22.00;30.90;;;;;;5056790;28;20025;-51
2020/12/31 01:32:22;;;;;;;1.33;0.68;;;22.00;30.80;;;;;;5054581;28;20029;-50
2020/12/31 01:34:48;;;;;;;2.13;0.60;;;22.00;30.90;;;;;;5046253;28;20034;-52
2020/12/31 01:37:19;;;;;;;0.90;0.68;;;22.00;30.90;;;;;;5044685;28;20025;-46
2020/12/31 01:39:45;;;;;;;1.20;0.80;;;22.00;30.90;;;;;;5056561;28;20417;-46
2020/12/31 01:42:11;;;;;;;1.38;0.82;;;22.00;30.90;;;;;;5054722;28;20033;-49
2020/12/31 01:44:37;;;;;;;1.02;0.60;;;22.00;30.90;;;;;;5038496;28;20053;-51
2020/12/31 01:47:04;;;;;;;1.13;0.65;;;22.00;30.90;;;;;;5048248;28;20071;-49
2020/12/31 01:49:32;;;;;;;1.58;0.95;;;22.00;31.00;;;;;;5050638;28;20033;-50
2020/12/31 01:51:59;;;;;;;1.25;0.68;;;21.90;30.90;;;;;;5041340;28;20032;-48
2020/12/31 01:54:26;;;;;;;1.25;0.85;;;21.90;30.90;;;;;;5056344;28;20037;-49
2020/12/31 01:56:57;;;;;;;0.82;0.60;;;21.90;30.90;;;;;;5054626;28;20033;-49
2020/12/31 01:59:23;;;;;;;1.38;0.85;;;21.90;30.90;;;;;;5056180;28;20040;-51
2020/12/31 02:01:49;;;;;;;2.25;0.60;;;21.90;30.90;;;;;;5052164;28;20013;-49
2020/12/31 02:04:16;;;;;;;1.10;0.65;;;21.90;30.90;;;;;;5056218;28;20098;-51
2020/12/31 02:06:43;;;;;;;1.10;0.60;;;21.90;30.90;;;;;;5049886;28;20036;-49
2020/12/31 02:09:09;;;;;;;1.27;0.50;;;21.90;31.00;;;;;;5036502;28;20024;-49
2020/12/31 02:11:35;;;;;;;1.45;0.68;;;21.90;31.00;;;;;;5053044;28;20028;-47
2020/12/31 02:14:02;;;;;;;1.05;0.57;;;21.80;30.90;;;;;;5053812;28;20338;-47
2020/12/31 02:16:29;;;;;;;0.82;0.60;;;21.80;30.90;;;;;;5052780;28;20032;-48
2020/12/31 02:19:21;;;;;;;0.98;0.63;;;21.80;30.90;;;;;;5054280;28;20033;-46
2020/12/31 02:21:48;;;;;;;1.10;0.68;;;21.80;30.90;;;;;;5040783;28;20060;-48
2020/12/31 02:24:15;;;;;;;1.10;0.57;;;21.80;30.90;;;;;;5036892;28;20041;-48
2020/12/31 02:26:42;;;;;;;1.17;0.50;;;21.80;31.00;;;;;;5055021;28;20032;-50
2020/12/31 02:29:09;;;;;;;0.73;0.50;;;21.80;31.00;;;;;;5055499;28;20035;-52
2020/12/31 02:31:37;;;;;;;1.00;0.60;;;21.80;31.00;;;;;;5039847;28;20193;-50
2020/12/31 02:34:03;;;;;;;2.65;0.80;;;21.80;31.00;;;;;;5035538;28;20068;-47
2020/12/31 02:36:31;;;;;;;0.88;0.60;;;21.80;31.00;;;;;;5047632;28;20036;-48
2020/12/31 02:38:59;;;;;;;0.68;0.60;;;21.70;30.90;;;;;;5035320;28;20041;-47
2020/12/31 02:41:25;;;;;;;0.88;0.75;;;21.80;31.00;;;;;;5036255;28;20037;-49
2020/12/31 02:43:51;;;;;;;0.88;0.60;;;21.80;31.10;;;;;;5018009;28;20353;-48
2020/12/31 02:46:21;;;;;;;1.83;0.70;;;21.80;31.00;;;;;;5037262;28;20021;-48
2020/12/31 02:48:50;;;;;;;0.88;0.60;;;21.70;31.00;;;;;;5036101;28;20030;-47
2020/12/31 02:51:20;;;;;;;0.52;0.50;;;21.80;31.10;;;;;;5018459;28;20029;-48
2020/12/31 02:53:46;;;;;;;0.93;0.80;;;21.70;31.00;;;;;;5035308;28;20045;-49
2020/12/31 02:56:16;;;;;;;1.02;0.60;;;21.70;31.10;;;;;;5036330;28;20053;-48
2020/12/31 02:58:42;;;;;;;0.85;0.70;;;21.70;31.10;;;;;;5035527;28;20033;-49
2020/12/31 03:01:08;;;;;;;0.98;0.60;;;21.70;31.10;;;;;;5021645;28;20497;-49
2020/12/31 03:03:35;;;;;;;1.67;0.70;;;21.70;31.10;;;;;;5035518;28;20420;-48
2020/12/31 03:06:01;;;;;;;0.50;0.50;;;21.70;31.10;;;;;;5051705;28;20021;-47
2020/12/31 03:08:27;;;;;;;0.90;0.63;;;21.70;31.20;;;;;;5035093;28;20470;-48
2020/12/31 03:10:54;;;;;;;1.05;0.60;;;21.70;31.20;;;;;;5036226;28;20025;-49
2020/12/31 03:13:26;;;;;;;0.50;0.40;;;21.60;31.20;;;;;;5021562;28;20442;-47
2020/12/31 03:15:53;;;;;;;0.60;0.50;;;21.70;31.30;;;;;;5054091;28;20029;-48
2020/12/31 03:18:19;;;;;;;0.73;0.50;;;21.60;31.20;;;;;;5054869;28;20037;-50
2020/12/31 03:20:46;;;;;;;0.50;0.50;;;21.60;31.20;;;;;;5051495;28;20060;-50
2020/12/31 03:23:14;;;;;;;1.23;0.60;;;21.60;31.20;;;;;;5052326;28;20183;-49
2020/12/31 03:25:41;;;;;;;0.35;0.35;;;21.60;31.20;;;;;;5049027;28;20052;-48
2020/12/31 03:28:06;;;;;;;0.95;0.60;;;21.60;31.20;;;;;;5052119;28;20112;-46
2020/12/31 03:30:33;;;;;;;0.82;0.50;;;21.60;31.20;;;;;;5053000;28;20124;-47
2020/12/31 03:32:59;;;;;;;0.60;0.40;;;21.60;31.20;;;;;;5041886;28;20413;-47
2020/12/31 03:35:25;;;;;;;0.93;0.50;;;21.60;31.20;;;;;;5036708;28;20037;-52
2020/12/31 03:37:51;;;;;;;0.60;0.57;;;21.50;31.10;;;;;;5035370;28;20099;-47
2020/12/31 03:40:18;;;;;;;0.60;0.50;;;21.50;31.10;;;;;;5040267;28;20371;-49
2020/12/31 03:42:44;;;;;;;0.60;0.50;;;21.50;31.20;;;;;;5049112;28;20156;-47
2020/12/31 03:45:10;;;;;;;0.43;0.40;;;21.60;31.30;;;;;;5035335;28;20053;-51
2020/12/31 03:47:36;;;;;;;0.95;0.60;;;21.50;31.20;;;;;;5052270;28;20071;-50
2020/12/31 03:50:04;;;;;;;0.60;0.50;;;21.50;31.30;;;;;;5035928;28;20112;-51
2020/12/31 03:52:30;;;;;;;0.60;0.40;;;21.50;31.30;;;;;;5034290;28;20384;-51
2020/12/31 03:54:56;;;;;;;0.60;0.47;;;21.50;31.30;;;;;;5035383;28;20017;-53
2020/12/31 03:57:22;;;;;;;0.65;0.47;;;21.50;31.40;;;;;;5034145;28;20123;-53
2020/12/31 03:59:48;;;;;;;0.43;0.32;;;21.50;31.40;;;;;;5053578;28;20051;-53
2020/12/31 04:02:13;;;;;;;0.40;0.32;;;21.50;31.40;;;;;;5046877;28;20108;-49
2020/12/31 04:04:39;;;;;;;0.40;0.40;;;21.50;31.40;;;;;;5052181;28;20032;-50
2020/12/31 04:07:05;;;;;;;0.80;0.50;;;21.50;31.40;;;;;;5054209;28;20047;-48
2020/12/31 04:09:31;;;;;;;0.65;0.40;;;21.50;31.50;;;;;;5053611;28;20037;-49
2020/12/31 04:11:58;;;;;;;0.73;0.40;;;21.50;31.50;;;;;;5036724;28;20033;-55
2020/12/31 04:14:24;;;;;;;0.40;0.40;;;21.40;31.40;;;;;;5034209;28;20048;-53
2020/12/31 04:16:50;;;;;;;0.82;0.50;;;21.40;31.50;;;;;;5043657;28;20421;-55
2020/12/31 04:19:16;;;;;;;0.43;0.43;;;21.40;31.50;;;;;;5016582;28;20033;-51
2020/12/31 04:21:42;;;;;;;0.82;0.60;;;21.40;31.50;;;;;;5035661;28;20513;-51
2020/12/31 04:24:08;;;;;;;0.88;0.50;;;21.40;31.50;;;;;;5033999;28;20034;-49
2020/12/31 04:26:33;;;;;;;0.73;0.50;;;21.40;31.60;;;;;;5052852;28;20028;-52
2020/12/31 04:28:59;;;;;;;1.45;0.60;;;21.40;31.60;;;;;;5054050;28;20083;-52
2020/12/31 04:31:25;;;;;;;0.55;0.45;;;21.40;31.60;;;;;;5049950;28;20040;-53
2020/12/31 04:33:51;;;;;;;0.77;0.60;;;21.40;31.60;;;;;;5051300;28;20083;-55
2020/12/31 04:36:17;;;;;;;1.08;0.50;;;21.40;31.50;;;;;;5053473;28;20025;-52
2020/12/31 04:38:43;;;;;;;0.88;0.40;;;21.40;31.50;;;;;;5057958;28;20345;-52
2020/12/31 04:41:12;;;;;;;1.17;0.50;;;21.40;31.60;;;;;;5045026;28;20130;-52
2020/12/31 04:43:38;;;;;;;0.52;0.40;;;21.40;31.60;;;;;;5037786;28;20030;-49
2020/12/31 04:46:06;;;;;;;0.80;0.40;;;21.40;31.60;;;;;;5047867;28;20040;-51
2020/12/31 04:48:38;;;;;;;1.20;0.50;;;21.40;31.60;;;;;;5053341;28;20021;-53
2020/12/31 04:51:10;;;;;;;0.63;0.43;;;21.30;31.50;;;;;;5057510;28;20041;-48
2020/12/31 04:53:38;;;;;;;1.08;0.50;;;21.30;31.60;;;;;;5042087;28;20034;-48
2020/12/31 04:56:04;;;;;;;0.52;0.40;;;21.30;31.60;;;;;;5037484;28;20103;-50
2020/12/31 04:58:31;;;;;;;0.55;0.45;;;21.30;31.60;;;;;;5026019;28;20116;-51
2020/12/31 05:00:57;;;;;;;0.32;0.32;;;21.30;31.60;;;;;;5057205;28;20408;-51
2020/12/31 05:03:24;;;;;;;1.02;0.47;;;21.30;31.60;;;;;;5037710;28;20021;-51
2020/12/31 05:06:01;;;;;;;0.70;0.55;;;21.30;31.60;;;;;;5037602;28;20033;-53
2020/12/31 05:08:30;;;;;;;0.43;0.43;;;21.30;31.60;;;;;;5041542;28;20396;-50
2020/12/31 05:10:58;;;;;;;0.40;0.40;;;21.30;31.60;;;;;;5037112;28;20076;-47
2020/12/31 05:13:24;;;;;;;0.55;0.40;;;21.30;31.70;;;;;;5052073;28;20489;-48
2020/12/31 05:15:50;;;;;;;0.95;0.30;;;21.30;31.70;;;;;;5057084;28;20032;-50
2020/12/31 05:18:20;;;;;;;0.45;0.38;;;21.30;31.70;;;;;;5044952;28;20025;-52
2020/12/31 05:20:48;;;;;;;2.30;0.40;;;21.20;31.60;;;;;;5056681;28;20045;-50
2020/12/31 05:23:19;;;;;;;0.38;0.38;;;21.20;31.70;;;;;;5040464;28;20103;-54
2020/12/31 05:25:45;;;;;;;0.40;0.30;;;21.20;31.70;;;;;;5036901;28;20345;-50
2020/12/31 05:28:21;;;;;;;0.88;0.52;;;21.20;31.80;;;;;;5038243;28;20346;-50
2020/12/31 05:30:49;;;;;;;0.70;0.50;;;21.20;31.70;;;;;;5056615;28;20112;-48
2020/12/31 05:33:38;;;;;;;0.40;0.40;;;21.20;31.70;;;;;;5050953;28;20436;-54
2020/12/31 05:36:20;;;;;;;0.52;0.40;;;21.30;31.80;;;;;;5051909;28;20101;-48
2020/12/31 05:39:03;;;;;;;0.50;0.40;;;21.20;31.70;;;;;;5053619;28;20032;-52
2020/12/31 05:41:30;;;;;;;0.35;0.35;;;21.20;31.70;;;;;;5037498;28;20044;-52
2020/12/31 05:44:01;;;;;;;0.63;0.20;;;21.20;31.60;;;;;;5043317;28;20087;-48
2020/12/31 05:46:29;;;;;;;0.50;0.40;;;21.20;31.50;;;;;;5036155;28;20034;-49
2020/12/31 05:48:58;;;;;;;0.60;0.50;;;21.20;31.50;;;;;;5049697;28;20032;-51
2020/12/31 05:51:26;;;;;;;0.50;0.40;;;21.20;31.50;;;;;;5041982;28;20052;-53
2020/12/31 05:53:53;;;;;;;0.30;0.30;;;21.20;31.50;;;;;;5036081;28;20055;-52
2020/12/31 05:56:20;;;;;;;0.40;0.40;;;21.20;31.50;;;;;;5056350;28;20054;-48
2020/12/31 05:58:48;;;;;;;0.40;0.30;;;21.20;31.50;;;;;;5041337;28;20349;-51
2020/12/31 06:01:15;;;;;;;0.60;0.30;;;21.20;31.60;;;;;;5056078;28;20067;-52
2020/12/31 06:03:49;;;;;;;0.85;0.30;;;21.20;32.20;;;;;;5049096;28;20037;-50
2020/12/31 06:06:22;;;;;;;0.30;0.28;;;21.10;31.50;;;;;;5035895;28;20033;-48
2020/12/31 06:08:56;;;;;;;1.15;0.45;;;21.10;31.40;;;;;;5051433;28;20344;-48
2020/12/31 06:11:33;;;;;;;2.13;0.40;;;21.10;31.40;;;;;;5055839;28;20348;-48
2020/12/31 06:14:02;;;;;;;0.52;0.30;;;21.10;31.50;;;;;;5038867;28;20464;-49
2020/12/31 06:16:34;;;;;;;0.30;0.30;;;21.10;31.50;;;;;;5035931;28;20022;-53
2020/12/31 06:19:08;;;;;;;0.90;0.22;;;21.10;31.50;;;;;;5021825;28;20453;-51
2020/12/31 06:21:41;;;;;;;0.38;0.38;;;21.10;31.50;;;;;;5017912;28;20049;-52
2020/12/31 06:24:12;;;;;;;0.30;0.28;;;21.10;31.40;;;;;;5036710;28;20353;-52
2020/12/31 06:26:43;;;;;;;0.38;0.25;;;21.10;31.50;;;;;;5037296;28;20456;-52
2020/12/31 06:29:09;;;;;;;0.50;0.32;;;21.10;31.40;;;;;;5036888;28;20029;-49
2020/12/31 06:31:40;;;;;;;0.47;0.30;;;21.10;31.50;;;;;;5035704;28;20460;-48
2020/12/31 06:34:06;;;;;;;0.82;0.40;;;21.10;31.50;;;;;;5049480;28;20044;-48
2020/12/31 06:36:34;;;;;;;0.77;0.40;;;21.10;31.50;;;;;;5046756;28;20028;-50
2020/12/31 06:39:00;;;;;;;0.52;0.40;;;21.10;31.50;;;;;;5017945;28;20029;-47
2020/12/31 06:41:33;;;;;;;0.55;0.40;;;21.10;31.40;;;;;;5035407;28;20128;-52
2020/12/31 06:44:12;;;;;;;0.57;0.30;;;21.00;32.10;;;;;;5053016;28;20037;-53
2020/12/31 06:46:46;;;;;;;0.50;0.20;;;21.00;31.40;;;;;;5049745;28;20055;-52
2020/12/31 06:49:13;;;;;;;0.20;0.20;;;21.00;31.40;;;;;;5048290;28;20029;-52
2020/12/31 06:51:39;;;;;;;2.45;0.50;;;21.00;31.40;;;;;;5035119;28;20033;-50
2020/12/31 06:54:05;;;;;;;1.52;0.50;;;21.00;31.50;;;;;;5046171;28;20037;-53
2020/12/31 06:56:47;;;;;;;0.38;0.30;;;21.00;31.50;;;;;;5034949;28;20127;-53
2020/12/31 06:59:27;;;;;;;0.28;0.28;;;21.00;31.50;;;;;;5051524;28;20025;-50
2020/12/31 07:01:55;;;;;;;0.32;0.22;;;21.00;31.60;;;;;;5020373;28;20045;-53
2020/12/31 07:04:32;;;;;;;0.30;0.20;;;21.00;31.70;;;;;;5020414;28;20025;-50
2020/12/31 07:06:59;;;;;;;0.80;0.28;;;21.00;31.70;;;;;;5045204;28;20055;-51
2020/12/31 07:09:54;;;;;;;0.68;0.30;;;21.00;31.70;;;;;;5035049;28;20033;-53
2020/12/31 07:12:41;;;;;;;0.60;0.30;;;21.00;31.70;;;;;;5038669;28;20478;-52
2020/12/31 07:15:08;;;;;;;0.40;0.30;;;21.00;31.70;;;;;;5054552;28;20029;-50
2020/12/31 07:17:36;;;;;;;0.20;0.20;;;21.00;31.80;;;;;;5050754;28;20040;-48
2020/12/31 07:20:10;;;;;;;0.28;0.28;;;20.90;31.80;;;;;;5047029;28;20345;-47
2020/12/31 07:22:43;;;;;;;0.80;0.30;;;21.00;31.80;;;;;;5046392;28;20188;-47
2020/12/31 07:25:11;;;;;;;0.65;0.40;;;21.00;31.90;;;;;;5034631;28;20353;-50
2020/12/31 07:27:39;;;;;;;0.47;0.30;;;20.90;31.80;;;;;;5022387;28;20044;-50
2020/12/31 07:30:08;;;;;;;0.52;0.40;;;21.00;31.90;;;;;;5037311;28;20044;-54
2020/12/31 07:32:51;;;;;;;1.30;0.30;;;20.90;31.90;;;;;;5042367;28;20460;-49
2020/12/31 07:35:25;;;;;;;0.32;0.15;;;20.90;31.90;;;;;;5055000;28;20036;-51
2020/12/31 07:37:52;;;;;;;0.55;0.28;;;20.90;32.00;;;;;;5049396;28;20036;-58
2020/12/31 07:40:39;;;;;;;0.90;0.30;;;20.90;32.40;;;;;;5042785;28;20467;-53
2020/12/31 07:43:06;;;;;;;0.50;0.30;;;20.90;32.00;;;;;;5047904;28;20071;-55
2020/12/31 07:45:32;;;;;;;0.70;0.60;;;20.90;32.00;;;;;;5051942;28;20028;-55
2020/12/31 07:47:59;;;;;;;0.80;0.30;;;20.90;32.00;;;;;;5052205;28;20345;-50
2020/12/31 07:50:25;;;;;;;0.22;0.20;;;20.90;32.00;;;;;;5049154;28;20516;-50
2020/12/31 07:52:52;;;;;;;0.50;0.30;;;20.90;32.60;;;;;;5052906;28;20029;-50
2020/12/31 07:55:18;;;;;;;0.10;0.10;;;20.90;31.90;;;;;;5049511;28;20029;-52
2020/12/31 07:57:44;;;;;;;0.50;0.40;;;20.90;32.50;;;;;;5049549;28;20112;-51
2020/12/31 08:00:18;;;;;;;0.43;0.20;;;20.90;31.90;;;;;;5048610;28;20124;-55
2020/12/31 08:02:57;;;;;;;0.20;0.20;;;20.90;31.90;;;;;;5048810;28;20040;-54
2020/12/31 08:05:25;;;;;;;0.28;0.20;;;20.90;32.20;;;;;;5051978;28;20329;-50
2020/12/31 08:07:56;;;;;;;0.40;0.20;;;20.90;32.70;;;;;;5047472;28;20063;-54
2020/12/31 08:10:23;;;;;;;0.30;0.30;;;20.90;32.90;;;;;;5037425;28;20070;-52
2020/12/31 08:12:56;;;;;;;0.30;0.22;;;20.90;33.00;;;;;;5055772;28;20329;-54
2020/12/31 08:15:24;;;;;;;0.90;0.20;;;21.00;33.20;;;;;;5045233;28;20029;-54
2020/12/31 08:17:52;;;;;;;1.10;0.30;;;21.00;33.30;;;;;;5024683;28;20614;-55
2020/12/31 08:20:19;;;;;;;0.85;0.30;;;21.00;33.30;;;;;;5053314;28;20041;-51
2020/12/31 08:22:57;;;;;;;0.77;0.30;;;21.00;33.20;;;;;;5050696;28;20049;-50
2020/12/31 08:25:25;;;;;;;0.43;0.15;;;21.00;33.00;;;;;;5055701;28;20025;-51
2020/12/31 08:27:56;;;;;;;2.17;0.32;;;21.00;32.90;;;;;;5055043;28;20016;-52
2020/12/31 08:30:23;;;;;;;0.90;0.38;;;21.10;32.80;;;;;;5052268;28;20035;-53
2020/12/31 08:32:51;;;;;;;0.43;0.28;;;21.10;32.70;;;;;;5055820;28;20029;-50
2020/12/31 08:35:31;;;;;;;0.28;0.20;;;21.20;32.70;;;;;;5050035;28;20032;-51
2020/12/31 08:38:17;;;;;;;0.30;0.20;;;21.20;32.60;;;;;;5044719;28;20083;-52
2020/12/31 08:40:47;;;;;;;0.10;0.10;;;21.20;32.50;;;;;;5053664;28;20037;-52
2020/12/31 08:43:19;;;;;;;0.40;0.30;;;21.20;32.50;;;;;;5050030;28;20045;-53
2020/12/31 08:45:45;;;;;;;1.35;0.20;;;21.40;32.60;;;;;;5038336;28;20325;-55
2020/12/31 08:48:25;;;;;;;0.20;0.10;;;21.40;32.50;;;;;;5038535;28;20167;-50
2020/12/31 08:51:07;;;;;;;0.20;0.10;;;21.40;32.40;;;;;;5055176;28;20029;-55
2020/12/31 08:53:53;;;;;;;0.93;0.32;;;21.50;32.40;;;;;;5054903;28;20360;-55
2020/12/31 08:56:20;;;;;;;0.52;0.30;;;21.60;32.50;;;;;;5054774;28;20098;-55
2020/12/31 08:58:46;;;;;;;1.35;0.30;;;21.60;32.40;;;;;;5051138;28;20033;-56
2020/12/31 09:01:24;;;;;;;0.35;0.20;;;21.70;32.40;;;;;;5054864;28;20368;-49
2020/12/31 09:03:50;;;;;;;0.88;0.25;;;21.80;32.40;;;;;;5055279;28;20067;-51
2020/12/31 09:06:26;;;;;;;0.47;0.20;;;21.80;32.30;;;;;;5054078;28;20112;-53
2020/12/31 09:08:52;;;;;;;0.30;0.20;;;21.90;32.20;;;;;;5054058;28;20025;-52
2020/12/31 09:11:26;;;;;;;0.30;0.20;;;22.00;32.20;;;;;;5047390;28;20062;-53
2020/12/31 09:14:05;;;;;;;0.20;0.10;;;22.00;32.10;;;;;;5039623;28;20033;-49
2020/12/31 09:16:30;;;;;;;0.73;0.20;;;22.10;32.00;;;;;;5040848;28;20029;-51
2020/12/31 09:18:58;;;;;;;1.00;0.20;;;22.20;32.00;;;;;;5042669;28;20025;-52
2020/12/31 09:21:30;;;;;;;1.58;0.20;;;22.30;31.90;;;;;;5047913;28;20128;-50
2020/12/31 09:23:57;;;;;;;0.68;0.40;;;22.30;31.90;;;;;;5051455;28;20042;-51
2020/12/31 09:26:28;;;;;;;0.57;0.32;;;22.40;31.90;;;;;;5056956;28;20029;-51
2020/12/31 09:28:55;;;;;;;0.22;0.20;;;22.40;31.80;;;;;;5044659;28;20117;-51
2020/12/31 09:31:24;;;;;;;0.82;0.30;;;22.50;31.70;;;;;;5054790;28;20021;-52
2020/12/31 09:33:51;;;;;;;0.30;0.28;;;22.60;31.70;;;;;;5053158;28;20056;-50
2020/12/31 09:36:24;;;;;;;1.08;0.30;;;22.60;31.60;;;;;;5054991;28;20021;-55
2020/12/31 09:38:51;;;;;;;0.70;0.30;;;22.70;31.60;;;;;;5047085;28;20026;-49
2020/12/31 09:41:17;;;;;;;0.47;0.30;;;22.70;31.50;;;;;;5054571;28;20028;-51
2020/12/31 09:43:43;;;;;;;0.47;0.25;;;22.80;31.40;;;;;;5050664;28;20020;-53
2020/12/31 09:46:09;;;;;;;2.42;0.30;;;22.80;31.30;;;;;;5054375;28;20463;-50
2020/12/31 09:48:36;;;;;;;0.43;0.35;;;22.90;31.20;;;;;;5051217;28;20130;-51
2020/12/31 09:51:03;;;;;;;0.52;0.30;;;22.90;31.10;;;;;;5049119;28;20048;-55
2020/12/31 09:53:29;;;;;;;0.40;0.30;;;23.00;31.10;;;;;;5054383;28;20127;-48
2020/12/31 09:55:54;;;;;;;0.47;0.22;;;23.00;31.00;;;;;;5052910;28;20113;-52
2020/12/31 09:58:20;;;;;;;1.35;0.40;;;23.00;30.90;;;;;;5051247;28;20017;-50
2020/12/31 10:00:46;;;;;;;0.30;0.20;;;23.10;30.90;;;;;;5047233;28;20049;-53
2020/12/31 10:03:12;;;;;;;0.38;0.20;;;23.10;30.90;;;;;;5035742;28;20079;-53
2020/12/31 10:05:37;;;;;;;0.52;0.40;;;23.10;30.80;;;;;;5034436;28;20440;-52
2020/12/31 10:08:03;;;;;;;2.70;0.20;;;23.20;30.80;;;;;;5052283;28;20500;-50
2020/12/31 10:10:29;;;;;;;0.40;0.30;;;23.20;30.70;;;;;;5050873;28;20039;-49
2020/12/31 10:12:58;;;;;;;0.45;0.20;;;23.20;30.70;;;;;;5055347;28;20388;-52
2020/12/31 10:15:24;;;;;;;1.25;0.20;;;23.30;30.70;;;;;;5053440;28;20893;-53
2020/12/31 10:17:49;;;;;;;0.30;0.30;;;23.30;30.60;;;;;;5055648;28;20125;-51
2020/12/31 10:20:15;;;;;;;0.55;0.30;;;23.30;30.60;;;;;;5053088;28;20128;-48
2020/12/31 10:22:41;;;;;;;0.25;0.20;;;23.40;30.60;;;;;;5055071;28;20045;-52
2020/12/31 10:25:07;;;;;;;0.30;0.20;;;23.40;30.50;;;;;;5053928;28;20344;-56
2020/12/31 10:27:34;;;;;;;0.32;0.32;;;23.40;30.50;;;;;;5053577;28;20375;-51
2020/12/31 10:30:06;;;;;;;0.95;0.35;;;23.40;30.40;;;;;;5049286;28;20039;-51
2020/12/31 10:32:32;;;;;;;1.52;0.40;;;23.40;30.40;;;;;;5051727;28;20404;-49
2020/12/31 10:34:58;;;;;;;0.50;0.30;;;23.40;30.40;;;;;;5041453;28;20048;-50
2020/12/31 10:37:24;;;;;;;0.32;0.20;;;23.50;30.40;;;;;;5037749;28;20338;-49
2020/12/31 10:39:49;;;;;;;0.55;0.30;;;23.40;30.40;;;;;;5036403;28;20048;-49
2020/12/31 10:42:15;;;;;;;3.05;0.30;;;23.50;30.30;;;;;;5035824;28;20025;-51
2020/12/31 10:44:41;;;;;;;0.85;0.30;;;23.50;30.20;;;;;;5044182;28;20372;-51
2020/12/31 10:47:06;;;;;;;0.77;0.30;;;23.50;30.20;;;;;;5035723;28;20037;-51
2020/12/31 10:49:32;;;;;;;0.20;0.20;;;23.50;30.20;;;;;;5043716;28;20028;-50
2020/12/31 10:51:58;;;;;;;0.35;0.22;;;23.50;30.10;;;;;;5055290;28;20038;-53
2020/12/31 10:54:24;;;;;;;0.17;0.17;;;23.50;30.10;;;;;;5053485;28;20043;-52
2020/12/31 10:56:50;;;;;;;1.75;0.30;;;23.50;30.10;;;;;;5053040;28;20036;-51
2020/12/31 10:59:15;;;;;;;0.35;0.30;;;23.50;30.10;;;;;;5048226;28;20029;-51
2020/12/31 11:01:41;;;;;;;1.35;0.40;;;23.50;30.10;;;;;;5042185;28;20048;-49
2020/12/31 11:04:07;;;;;;;0.52;0.30;;;23.50;30.10;;;;;;5045302;28;20051;-53
2020/12/31 11:06:33;;;;;;;1.20;0.22;;;23.60;30.30;;;;;;5035126;28;20112;-51
2020/12/31 11:08:59;;;;;;;0.95;0.30;;;23.60;30.50;;;;;;5037554;28;20476;-53
2020/12/31 11:11:27;;;;;;;0.93;0.30;;;23.60;30.60;;;;;;5045055;28;20488;-50
2020/12/31 11:13:54;;;;;;;1.50;0.50;;;23.60;30.60;;;;;;5052157;28;20039;-51
2020/12/31 11:16:20;;;;;;;0.50;0.20;;;23.60;30.50;;;;;;5032683;28;20041;-50
2020/12/31 11:18:46;;;;;;;1.00;0.20;;;23.60;30.40;;;;;;5038388;28;20054;-48
2020/12/31 11:21:18;;;;;;;1.67;0.80;;;23.60;30.30;;;;;;5053338;28;20052;-51
2020/12/31 11:23:44;;;;;;;0.88;0.30;;;23.60;30.30;;;;;;5052963;28;20471;-53
2020/12/31 11:26:16;;;;;;;1.33;0.40;;;23.60;30.30;;;;;;5054458;28;20025;-52
2020/12/31 11:28:43;;;;;;;0.47;0.30;;;23.60;30.30;;;;;;5054665;28;20033;-51
2020/12/31 11:31:12;;;;;;;0.85;0.20;;;23.60;30.20;;;;;;5049899;28;20028;-49
2020/12/31 11:33:42;;;;;;;0.13;0.13;;;23.60;30.20;;;;;;5052473;28;20394;-49
2020/12/31 11:36:08;;;;;;;0.70;0.30;;;23.60;30.30;;;;;;5054503;28;20032;-49
2020/12/31 11:38:34;;;;;;;3.63;0.30;;;23.60;30.60;;;;;;5051641;28;20021;-47
2020/12/31 11:41:02;;;;;;;0.35;0.20;;;23.60;30.80;;;;;;5047130;28;20037;-51
2020/12/31 11:43:28;;;;;;;0.50;0.30;;;23.60;30.90;;;;;;5042595;28;20036;-51
2020/12/31 11:45:54;;;;;;;1.08;0.40;;;23.60;30.90;;;;;;5052437;28;20033;-53
2020/12/31 11:48:20;;;;;;;0.45;0.28;;;23.60;30.90;;;;;;5050287;28;20033;-53
2020/12/31 11:50:46;;;;;;;2.95;0.35;;;23.60;30.90;;;;;;5049589;28;20185;-49
2020/12/31 11:53:12;;;;;;;0.77;0.35;;;23.50;30.90;;;;;;5051249;28;20025;-49
2020/12/31 11:55:37;;;;;;;1.33;0.25;;;23.50;31.10;;;;;;5032023;28;20036;-55
2020/12/31 11:58:03;;;;;;;1.02;0.32;;;23.60;31.30;;;;;;5036231;28;20025;-52
2020/12/31 12:00:29;;;;;;;0.43;0.30;;;23.60;31.40;;;;;;5037697;28;20076;-55
2020/12/31 12:02:55;;;;;;;0.73;0.28;;;23.60;31.40;;;;;;5049618;28;20033;-55
2020/12/31 12:05:23;;;;;;;0.45;0.20;;;23.60;31.40;;;;;;5047902;28;20029;-56
2020/12/31 12:07:49;;;;;;;0.43;0.25;;;23.60;31.50;;;;;;5050883;28;20083;-54
2020/12/31 12:10:15;;;;;;;1.38;0.45;;;23.60;31.40;;;;;;5051042;28;20048;-54
2020/12/31 12:12:41;;;;;;;0.20;0.20;;;23.70;31.50;;;;;;5050602;28;20040;-56
2020/12/31 12:15:07;;;;;;;1.35;0.28;;;23.70;31.40;;;;;;5042595;28;20033;-57
2020/12/31 12:17:33;;;;;;;0.40;0.20;;;23.70;31.50;;;;;;5036015;28;20029;-56
2020/12/31 12:19:59;;;;;;;0.60;0.28;;;23.70;31.40;;;;;;5047868;28;20029;-58
2020/12/31 12:22:25;;;;;;;0.20;0.20;;;23.70;31.40;;;;;;5048057;28;20049;-52
2020/12/31 12:24:50;;;;;;;0.80;0.20;;;23.70;31.40;;;;;;5046093;28;20025;-57
2020/12/31 12:27:17;;;;;;;0.30;0.30;;;23.70;31.40;;;;;;5048862;28;20029;-58
2020/12/31 12:29:43;;;;;;;0.82;0.28;;;23.80;31.50;;;;;;5050004;28;20060;-53
2020/12/31 12:32:10;;;;;;;0.25;0.20;;;23.80;31.40;;;;;;5047887;28;20033;-58
2020/12/31 12:34:36;;;;;;;0.88;0.28;;;23.70;31.30;;;;;;5048915;28;20029;-51
2020/12/31 12:37:02;;;;;;;0.68;0.22;;;23.80;31.20;;;;;;5049580;28;20029;-48
2020/12/31 12:39:28;;;;;;;4.55;0.60;;;23.80;31.30;;;;;;5048444;28;20325;-54
2020/12/31 12:41:56;;;;;;;1.38;0.20;;;23.80;31.20;;;;;;5044193;28;20045;-55
2020/12/31 12:44:22;;;;;;;2.35;0.20;;;23.80;31.20;;;;;;5044860;28;20025;-50
2020/12/31 12:46:48;;;;;;;3.35;0.45;;;23.80;31.20;;;;;;5045342;28;20032;-50
2020/12/31 12:49:14;;;;;;;1.08;0.40;;;23.90;31.30;;;;;;5038133;28;20541;-53
2020/12/31 12:51:40;;;;;;;1.52;0.40;;;23.80;31.10;;;;;;5046561;28;20025;-54
2020/12/31 12:54:06;;;;;;;1.02;0.30;;;23.80;31.00;;;;;;5046509;28;20124;-54